sensor_id;sensor_type;location;lat;lon;timestamp;temperature;humidity
2867;DHT22;1441;48.886;8.728;2023-05-17T00:01:04;7.70;95.90
2867;DHT22;1441;48.886;8.728;2023-05-17T00:03:30;7.70;95.50
2867;DHT22;1441;48.886;8.728;2023-05-17T00:05:56;7.70;95.10
2867;DHT22;1441;48.886;8.728;2023-05-17T00:08:21;7.70;95.30
2867;DHT22;1441;48.886;8.728;2023-05-17T00:10:47;7.60;95.90
2867;DHT22;1441;48.886;8.728;2023-05-17T00:13:12;7.60;95.60
2867;DHT22;1441;48.886;8.728;2023-05-17T00:15:38;7.60;96.20
2867;DHT22;1441;48.886;8.728;2023-05-17T00:18:04;7.60;96.30
2867;DHT22;1441;48.886;8.728;2023-05-17T00:20:29;7.60;96.20
2867;DHT22;1441;48.886;8.728;2023-05-17T00:22:55;7.60;95.80
2867;DHT22;1441;48.886;8.728;2023-05-17T00:25:20;7.60;95.80
2867;DHT22;1441;48.886;8.728;2023-05-17T00:27:46;7.60;95.70
2867;DHT22;1441;48.886;8.728;2023-05-17T00:30:12;7.50;95.90
2867;DHT22;1441;48.886;8.728;2023-05-17T00:32:37;7.40;96.70
2867;DHT22;1441;48.886;8.728;2023-05-17T00:35:03;7.40;96.30
2867;DHT22;1441;48.886;8.728;2023-05-17T00:37:29;7.40;96.80
2867;DHT22;1441;48.886;8.728;2023-05-17T00:39:54;7.30;97.10
2867;DHT22;1441;48.886;8.728;2023-05-17T00:42:20;7.20;97.00
2867;DHT22;1441;48.886;8.728;2023-05-17T00:44:45;7.20;96.80
2867;DHT22;1441;48.886;8.728;2023-05-17T00:47:11;7.20;96.80
2867;DHT22;1441;48.886;8.728;2023-05-17T00:49:37;7.20;97.10
2867;DHT22;1441;48.886;8.728;2023-05-17T00:52:03;7.20;97.70
2867;DHT22;1441;48.886;8.728;2023-05-17T00:54:29;7.10;97.40
2867;DHT22;1441;48.886;8.728;2023-05-17T00:56:55;7.10;98.00
2867;DHT22;1441;48.886;8.728;2023-05-17T00:59:22;7.20;97.80
2867;DHT22;1441;48.886;8.728;2023-05-17T01:01:49;7.10;97.40
2867;DHT22;1441;48.886;8.728;2023-05-17T01:04:15;7.00;98.00
2867;DHT22;1441;48.886;8.728;2023-05-17T01:06:41;7.00;97.80
2867;DHT22;1441;48.886;8.728;2023-05-17T01:09:07;7.00;98.10
2867;DHT22;1441;48.886;8.728;2023-05-17T01:11:44;7.00;98.70
2867;DHT22;1441;48.886;8.728;2023-05-17T01:17:07;7.00;98.30
2867;DHT22;1441;48.886;8.728;2023-05-17T01:20:00;7.00;98.20
2867;DHT22;1441;48.886;8.728;2023-05-17T01:28:03;6.70;99.50
2867;DHT22;1441;48.886;8.728;2023-05-17T01:30:31;6.70;99.10
2867;DHT22;1441;48.886;8.728;2023-05-17T01:32:58;6.70;99.70
2867;DHT22;1441;48.886;8.728;2023-05-17T01:35:24;6.70;99.90
2867;DHT22;1441;48.886;8.728;2023-05-17T01:37:52;6.70;99.60
2867;DHT22;1441;48.886;8.728;2023-05-17T01:40:18;6.80;99.20
2867;DHT22;1441;48.886;8.728;2023-05-17T01:42:47;6.90;98.20
2867;DHT22;1441;48.886;8.728;2023-05-17T01:45:22;6.90;98.70
2867;DHT22;1441;48.886;8.728;2023-05-17T01:48:11;7.00;97.50
2867;DHT22;1441;48.886;8.728;2023-05-17T01:50:40;6.90;98.50
2867;DHT22;1441;48.886;8.728;2023-05-17T01:53:29;6.90;98.40
2867;DHT22;1441;48.886;8.728;2023-05-17T01:56:06;6.70;99.90
2867;DHT22;1441;48.886;8.728;2023-05-17T01:58:38;6.60;99.90
2867;DHT22;1441;48.886;8.728;2023-05-17T02:01:07;6.40;99.90
2867;DHT22;1441;48.886;8.728;2023-05-17T02:03:33;6.40;99.90
2867;DHT22;1441;48.886;8.728;2023-05-17T02:05:58;6.40;99.90
2867;DHT22;1441;48.886;8.728;2023-05-17T02:08:24;6.50;99.90
2867;DHT22;1441;48.886;8.728;2023-05-17T02:10:49;6.60;99.90
2867;DHT22;1441;48.886;8.728;2023-05-17T02:13:15;6.50;99.90
2867;DHT22;1441;48.886;8.728;2023-05-17T02:15:40;6.40;99.90
2867;DHT22;1441;48.886;8.728;2023-05-17T02:18:06;6.40;99.90
2867;DHT22;1441;48.886;8.728;2023-05-17T02:20:31;6.30;99.90
2867;DHT22;1441;48.886;8.728;2023-05-17T02:22:57;6.30;99.90
2867;DHT22;1441;48.886;8.728;2023-05-17T02:25:22;6.20;99.90
2867;DHT22;1441;48.886;8.728;2023-05-17T02:27:48;6.30;99.90
2867;DHT22;1441;48.886;8.728;2023-05-17T02:30:14;6.40;99.90
2867;DHT22;1441;48.886;8.728;2023-05-17T02:32:41;6.50;99.90
2867;DHT22;1441;48.886;8.728;2023-05-17T02:35:07;6.30;99.90
2867;DHT22;1441;48.886;8.728;2023-05-17T02:37:33;6.10;99.90
2867;DHT22;1441;48.886;8.728;2023-05-17T02:39:59;6.00;99.90
2867;DHT22;1441;48.886;8.728;2023-05-17T02:42:24;6.00;99.90
2867;DHT22;1441;48.886;8.728;2023-05-17T02:44:50;6.00;99.90
2867;DHT22;1441;48.886;8.728;2023-05-17T02:47:20;5.90;99.90
2867;DHT22;1441;48.886;8.728;2023-05-17T02:49:46;5.90;99.90
2867;DHT22;1441;48.886;8.728;2023-05-17T02:52:13;5.90;99.90
2867;DHT22;1441;48.886;8.728;2023-05-17T02:54:39;5.80;99.90
2867;DHT22;1441;48.886;8.728;2023-05-17T02:57:08;5.80;99.90
2867;DHT22;1441;48.886;8.728;2023-05-17T02:59:33;5.80;99.90
2867;DHT22;1441;48.886;8.728;2023-05-17T03:01:59;5.80;99.90
2867;DHT22;1441;48.886;8.728;2023-05-17T03:04:24;5.70;99.90
2867;DHT22;1441;48.886;8.728;2023-05-17T03:06:50;5.70;99.90
2867;DHT22;1441;48.886;8.728;2023-05-17T03:09:16;5.70;99.90
2867;DHT22;1441;48.886;8.728;2023-05-17T03:11:41;5.60;99.90
2867;DHT22;1441;48.886;8.728;2023-05-17T03:14:07;5.60;99.90
2867;DHT22;1441;48.886;8.728;2023-05-17T03:16:32;5.60;99.90
2867;DHT22;1441;48.886;8.728;2023-05-17T03:18:58;5.60;99.90
2867;DHT22;1441;48.886;8.728;2023-05-17T03:21:23;5.60;99.90
2867;DHT22;1441;48.886;8.728;2023-05-17T03:23:49;5.60;99.90
2867;DHT22;1441;48.886;8.728;2023-05-17T03:26:14;5.70;99.90
2867;DHT22;1441;48.886;8.728;2023-05-17T03:28:40;5.60;99.90
2867;DHT22;1441;48.886;8.728;2023-05-17T03:31:06;5.50;99.90
2867;DHT22;1441;48.886;8.728;2023-05-17T03:33:31;5.50;99.90
2867;DHT22;1441;48.886;8.728;2023-05-17T03:35:57;5.60;99.90
2867;DHT22;1441;48.886;8.728;2023-05-17T03:38:22;5.60;99.90
2867;DHT22;1441;48.886;8.728;2023-05-17T03:40:50;5.60;99.90
2867;DHT22;1441;48.886;8.728;2023-05-17T03:43:16;5.60;99.90
2867;DHT22;1441;48.886;8.728;2023-05-17T03:45:41;5.60;99.90
2867;DHT22;1441;48.886;8.728;2023-05-17T03:48:07;5.50;99.90
2867;DHT22;1441;48.886;8.728;2023-05-17T03:50:32;5.50;99.90
2867;DHT22;1441;48.886;8.728;2023-05-17T03:52:58;5.50;99.90
2867;DHT22;1441;48.886;8.728;2023-05-17T03:55:24;5.50;99.90
2867;DHT22;1441;48.886;8.728;2023-05-17T03:57:49;5.60;99.90
2867;DHT22;1441;48.886;8.728;2023-05-17T04:00:15;5.70;99.90
2867;DHT22;1441;48.886;8.728;2023-05-17T04:02:46;5.70;99.90
2867;DHT22;1441;48.886;8.728;2023-05-17T04:05:12;5.70;99.90
2867;DHT22;1441;48.886;8.728;2023-05-17T04:07:37;5.70;99.90
2867;DHT22;1441;48.886;8.728;2023-05-17T04:10:03;5.80;99.90
2867;DHT22;1441;48.886;8.728;2023-05-17T04:12:29;5.80;99.90
2867;DHT22;1441;48.886;8.728;2023-05-17T04:14:55;5.90;99.90
2867;DHT22;1441;48.886;8.728;2023-05-17T04:17:21;5.90;99.90
2867;DHT22;1441;48.886;8.728;2023-05-17T04:19:46;5.90;99.90
2867;DHT22;1441;48.886;8.728;2023-05-17T04:22:12;5.90;99.90
2867;DHT22;1441;48.886;8.728;2023-05-17T04:24:37;5.90;99.90
2867;DHT22;1441;48.886;8.728;2023-05-17T04:27:03;6.00;99.90
2867;DHT22;1441;48.886;8.728;2023-05-17T04:29:29;6.00;99.90
2867;DHT22;1441;48.886;8.728;2023-05-17T04:31:55;6.00;99.90
2867;DHT22;1441;48.886;8.728;2023-05-17T04:34:20;6.10;99.90
2867;DHT22;1441;48.886;8.728;2023-05-17T04:36:49;6.20;99.90
2867;DHT22;1441;48.886;8.728;2023-05-17T04:39:15;6.20;99.90
2867;DHT22;1441;48.886;8.728;2023-05-17T04:41:41;6.30;99.90
2867;DHT22;1441;48.886;8.728;2023-05-17T04:44:07;6.40;99.90
2867;DHT22;1441;48.886;8.728;2023-05-17T04:46:32;6.40;99.90
2867;DHT22;1441;48.886;8.728;2023-05-17T04:48:58;6.40;99.90
2867;DHT22;1441;48.886;8.728;2023-05-17T04:51:24;6.30;99.90
2867;DHT22;1441;48.886;8.728;2023-05-17T04:53:51;6.30;99.90
2867;DHT22;1441;48.886;8.728;2023-05-17T04:56:17;6.40;99.90
2867;DHT22;1441;48.886;8.728;2023-05-17T04:58:43;6.50;99.90
2867;DHT22;1441;48.886;8.728;2023-05-17T05:01:11;6.50;99.90
2867;DHT22;1441;48.886;8.728;2023-05-17T05:03:37;6.60;99.90
2867;DHT22;1441;48.886;8.728;2023-05-17T05:06:02;6.80;99.90
2867;DHT22;1441;48.886;8.728;2023-05-17T05:08:28;6.90;99.90
2867;DHT22;1441;48.886;8.728;2023-05-17T05:10:54;7.00;99.90
2867;DHT22;1441;48.886;8.728;2023-05-17T05:13:21;7.00;99.90
2867;DHT22;1441;48.886;8.728;2023-05-17T05:15:46;7.10;99.90
2867;DHT22;1441;48.886;8.728;2023-05-17T05:18:12;7.30;99.90
2867;DHT22;1441;48.886;8.728;2023-05-17T05:20:37;7.40;99.90
2867;DHT22;1441;48.886;8.728;2023-05-17T05:23:03;7.50;99.90
2867;DHT22;1441;48.886;8.728;2023-05-17T05:25:33;7.60;99.90
2867;DHT22;1441;48.886;8.728;2023-05-17T05:27:58;7.70;99.90
2867;DHT22;1441;48.886;8.728;2023-05-17T05:30:24;8.20;99.90
2867;DHT22;1441;48.886;8.728;2023-05-17T05:32:50;9.00;96.70
2867;DHT22;1441;48.886;8.728;2023-05-17T05:35:17;9.70;93.70
2867;DHT22;1441;48.886;8.728;2023-05-17T05:37:43;10.80;90.10
2867;DHT22;1441;48.886;8.728;2023-05-17T05:40:10;11.70;86.80
2867;DHT22;1441;48.886;8.728;2023-05-17T05:42:36;12.50;84.30
2867;DHT22;1441;48.886;8.728;2023-05-17T05:45:02;13.00;82.50
2867;DHT22;1441;48.886;8.728;2023-05-17T05:47:27;13.20;81.60
2867;DHT22;1441;48.886;8.728;2023-05-17T05:49:53;13.50;80.10
2867;DHT22;1441;48.886;8.728;2023-05-17T05:52:18;14.00;78.50
2867;DHT22;1441;48.886;8.728;2023-05-17T05:54:44;14.60;76.90
2867;DHT22;1441;48.886;8.728;2023-05-17T05:57:10;14.90;75.70
2867;DHT22;1441;48.886;8.728;2023-05-17T05:59:35;15.30;74.40
2867;DHT22;1441;48.886;8.728;2023-05-17T06:02:01;15.80;73.30
2867;DHT22;1441;48.886;8.728;2023-05-17T06:04:27;15.80;73.00
2867;DHT22;1441;48.886;8.728;2023-05-17T06:06:53;15.80;73.50
2867;DHT22;1441;48.886;8.728;2023-05-17T06:09:19;15.90;73.10
2867;DHT22;1441;48.886;8.728;2023-05-17T06:11:44;16.40;71.80
2867;DHT22;1441;48.886;8.728;2023-05-17T06:14:10;16.70;70.70
2867;DHT22;1441;48.886;8.728;2023-05-17T06:16:36;17.50;68.70
2867;DHT22;1441;48.886;8.728;2023-05-17T06:19:02;17.40;69.30
2867;DHT22;1441;48.886;8.728;2023-05-17T06:21:28;17.20;69.20
2867;DHT22;1441;48.886;8.728;2023-05-17T06:23:54;17.40;69.20
2867;DHT22;1441;48.886;8.728;2023-05-17T06:26:19;18.00;67.10
2867;DHT22;1441;48.886;8.728;2023-05-17T06:28:45;19.00;64.80
2867;DHT22;1441;48.886;8.728;2023-05-17T06:31:11;19.10;64.40
2867;DHT22;1441;48.886;8.728;2023-05-17T06:33:36;18.20;65.70
2867;DHT22;1441;48.886;8.728;2023-05-17T06:36:02;18.10;66.30
2867;DHT22;1441;48.886;8.728;2023-05-17T06:38:27;18.70;65.40
2867;DHT22;1441;48.886;8.728;2023-05-17T06:40:54;19.00;64.30
2867;DHT22;1441;48.886;8.728;2023-05-17T06:43:20;19.10;62.20
2867;DHT22;1441;48.886;8.728;2023-05-17T06:45:46;18.60;64.90
2867;DHT22;1441;48.886;8.728;2023-05-17T06:48:12;20.30;61.40
2867;DHT22;1441;48.886;8.728;2023-05-17T06:50:37;20.90;59.90
2867;DHT22;1441;48.886;8.728;2023-05-17T06:53:03;20.40;60.50
2867;DHT22;1441;48.886;8.728;2023-05-17T06:55:29;19.10;62.80
2867;DHT22;1441;48.886;8.728;2023-05-17T06:57:55;18.20;63.70
2867;DHT22;1441;48.886;8.728;2023-05-17T07:00:20;17.20;65.90
2867;DHT22;1441;48.886;8.728;2023-05-17T07:02:46;15.90;71.00
2867;DHT22;1441;48.886;8.728;2023-05-17T07:05:12;14.80;75.10
2867;DHT22;1441;48.886;8.728;2023-05-17T07:07:38;14.40;76.20
2867;DHT22;1441;48.886;8.728;2023-05-17T07:10:04;14.40;76.60
2867;DHT22;1441;48.886;8.728;2023-05-17T07:12:30;13.90;77.60
2867;DHT22;1441;48.886;8.728;2023-05-17T07:14:56;13.70;78.10
2867;DHT22;1441;48.886;8.728;2023-05-17T07:17:22;13.40;80.30
2867;DHT22;1441;48.886;8.728;2023-05-17T07:19:47;13.40;82.00
2867;DHT22;1441;48.886;8.728;2023-05-17T07:22:15;14.60;78.70
2867;DHT22;1441;48.886;8.728;2023-05-17T07:24:42;16.50;73.20
2867;DHT22;1441;48.886;8.728;2023-05-17T07:27:08;17.10;71.20
2867;DHT22;1441;48.886;8.728;2023-05-17T07:29:33;18.20;68.80
2867;DHT22;1441;48.886;8.728;2023-05-17T07:31:59;19.70;65.40
2867;DHT22;1441;48.886;8.728;2023-05-17T07:34:25;20.30;62.70
2867;DHT22;1441;48.886;8.728;2023-05-17T07:36:50;21.00;60.90
2867;DHT22;1441;48.886;8.728;2023-05-17T07:39:16;21.50;59.30
2867;DHT22;1441;48.886;8.728;2023-05-17T07:41:41;20.60;61.20
2867;DHT22;1441;48.886;8.728;2023-05-17T07:44:07;20.90;61.70
2867;DHT22;1441;48.886;8.728;2023-05-17T07:46:32;21.60;61.20
2867;DHT22;1441;48.886;8.728;2023-05-17T07:48:58;21.70;60.20
2867;DHT22;1441;48.886;8.728;2023-05-17T07:51:24;23.30;57.10
2867;DHT22;1441;48.886;8.728;2023-05-17T07:53:49;22.70;58.10
2867;DHT22;1441;48.886;8.728;2023-05-17T07:56:15;22.60;58.60
2867;DHT22;1441;48.886;8.728;2023-05-17T07:58:41;20.80;60.90
2867;DHT22;1441;48.886;8.728;2023-05-17T08:01:06;19.20;64.20
2867;DHT22;1441;48.886;8.728;2023-05-17T08:03:34;17.60;68.10
2867;DHT22;1441;48.886;8.728;2023-05-17T08:05:59;16.50;70.60
2867;DHT22;1441;48.886;8.728;2023-05-17T08:08:25;16.00;73.10
2867;DHT22;1441;48.886;8.728;2023-05-17T08:10:51;15.90;72.00
2867;DHT22;1441;48.886;8.728;2023-05-17T08:13:16;15.90;73.80
2867;DHT22;1441;48.886;8.728;2023-05-17T08:15:42;16.00;73.00
2867;DHT22;1441;48.886;8.728;2023-05-17T08:18:07;15.70;73.80
2867;DHT22;1441;48.886;8.728;2023-05-17T08:20:33;15.20;74.60
2867;DHT22;1441;48.886;8.728;2023-05-17T08:22:58;14.90;75.50
2867;DHT22;1441;48.886;8.728;2023-05-17T08:25:24;14.70;75.80
2867;DHT22;1441;48.886;8.728;2023-05-17T08:27:50;15.10;74.20
2867;DHT22;1441;48.886;8.728;2023-05-17T08:30:15;15.90;70.40
2867;DHT22;1441;48.886;8.728;2023-05-17T08:32:41;15.40;73.80
2867;DHT22;1441;48.886;8.728;2023-05-17T08:35:07;14.90;75.30
2867;DHT22;1441;48.886;8.728;2023-05-17T08:37:32;14.60;76.40
2867;DHT22;1441;48.886;8.728;2023-05-17T08:39:58;16.30;72.90
2867;DHT22;1441;48.886;8.728;2023-05-17T08:42:24;18.80;66.60
2867;DHT22;1441;48.886;8.728;2023-05-17T08:44:50;20.80;60.30
2867;DHT22;1441;48.886;8.728;2023-05-17T08:47:17;22.20;58.60
2867;DHT22;1441;48.886;8.728;2023-05-17T08:49:51;22.60;55.60
2867;DHT22;1441;48.886;8.728;2023-05-17T08:52:17;23.60;53.90
2867;DHT22;1441;48.886;8.728;2023-05-17T08:54:43;22.00;56.30
2867;DHT22;1441;48.886;8.728;2023-05-17T08:57:09;19.80;61.80
2867;DHT22;1441;48.886;8.728;2023-05-17T08:59:37;19.00;63.50
2867;DHT22;1441;48.886;8.728;2023-05-17T09:02:04;19.40;63.20
2867;DHT22;1441;48.886;8.728;2023-05-17T09:04:30;18.80;62.40
2867;DHT22;1441;48.886;8.728;2023-05-17T09:06:56;17.80;64.70
2867;DHT22;1441;48.886;8.728;2023-05-17T09:09:24;17.00;65.90
2867;DHT22;1441;48.886;8.728;2023-05-17T09:11:50;16.00;70.90
2867;DHT22;1441;48.886;8.728;2023-05-17T09:14:16;15.30;72.40
2867;DHT22;1441;48.886;8.728;2023-05-17T09:16:41;15.40;71.80
2867;DHT22;1441;48.886;8.728;2023-05-17T09:19:13;15.10;73.70
2867;DHT22;1441;48.886;8.728;2023-05-17T09:21:44;14.70;74.10
2867;DHT22;1441;48.886;8.728;2023-05-17T09:24:11;14.70;74.60
2867;DHT22;1441;48.886;8.728;2023-05-17T09:26:38;14.40;76.00
2867;DHT22;1441;48.886;8.728;2023-05-17T09:29:11;14.40;75.60
2867;DHT22;1441;48.886;8.728;2023-05-17T09:31:37;14.30;76.80
2867;DHT22;1441;48.886;8.728;2023-05-17T09:34:03;14.00;78.40
2867;DHT22;1441;48.886;8.728;2023-05-17T09:36:30;14.10;78.00
2867;DHT22;1441;48.886;8.728;2023-05-17T09:39:01;14.40;76.00
2867;DHT22;1441;48.886;8.728;2023-05-17T09:41:31;14.30;75.20
2867;DHT22;1441;48.886;8.728;2023-05-17T09:43:59;14.10;77.40
2867;DHT22;1441;48.886;8.728;2023-05-17T09:46:25;14.20;75.70
2867;DHT22;1441;48.886;8.728;2023-05-17T09:48:54;14.20;76.20
2867;DHT22;1441;48.886;8.728;2023-05-17T09:51:41;14.10;75.50
2867;DHT22;1441;48.886;8.728;2023-05-17T09:54:07;13.90;77.20
2867;DHT22;1441;48.886;8.728;2023-05-17T09:56:34;13.90;77.20
2867;DHT22;1441;48.886;8.728;2023-05-17T09:59:01;14.20;74.50
2867;DHT22;1441;48.886;8.728;2023-05-17T10:01:29;14.00;77.00
2867;DHT22;1441;48.886;8.728;2023-05-17T10:03:58;13.90;78.10
2867;DHT22;1441;48.886;8.728;2023-05-17T10:06:27;14.00;78.10
2867;DHT22;1441;48.886;8.728;2023-05-17T10:08:55;14.20;75.60
2867;DHT22;1441;48.886;8.728;2023-05-17T10:11:26;14.60;74.30
2867;DHT22;1441;48.886;8.728;2023-05-17T10:14:17;14.90;72.70
2867;DHT22;1441;48.886;8.728;2023-05-17T10:16:47;15.30;71.30
2867;DHT22;1441;48.886;8.728;2023-05-17T10:19:13;15.40;72.10
2867;DHT22;1441;48.886;8.728;2023-05-17T10:21:39;15.60;70.20
2867;DHT22;1441;48.886;8.728;2023-05-17T10:24:05;15.50;70.20
2867;DHT22;1441;48.886;8.728;2023-05-17T10:26:32;15.40;70.50
2867;DHT22;1441;48.886;8.728;2023-05-17T10:28:59;15.30;73.40
2867;DHT22;1441;48.886;8.728;2023-05-17T10:31:28;15.10;74.00
2867;DHT22;1441;48.886;8.728;2023-05-17T10:33:54;15.30;74.10
2867;DHT22;1441;48.886;8.728;2023-05-17T10:36:20;15.10;74.20
2867;DHT22;1441;48.886;8.728;2023-05-17T10:38:47;15.00;74.70
2867;DHT22;1441;48.886;8.728;2023-05-17T10:41:14;14.70;75.30
2867;DHT22;1441;48.886;8.728;2023-05-17T10:43:42;14.90;73.30
2867;DHT22;1441;48.886;8.728;2023-05-17T10:46:15;14.90;72.60
2867;DHT22;1441;48.886;8.728;2023-05-17T10:48:41;14.90;71.90
2867;DHT22;1441;48.886;8.728;2023-05-17T10:51:07;14.80;72.40
2867;DHT22;1441;48.886;8.728;2023-05-17T10:56:31;14.90;72.00
2867;DHT22;1441;48.886;8.728;2023-05-17T10:59:27;14.90;72.80
2867;DHT22;1441;48.886;8.728;2023-05-17T11:04:48;14.90;74.60
2867;DHT22;1441;48.886;8.728;2023-05-17T11:10:10;14.80;73.50
2867;DHT22;1441;48.886;8.728;2023-05-17T11:12:37;14.70;73.30
2867;DHT22;1441;48.886;8.728;2023-05-17T11:15:09;14.90;71.10
2867;DHT22;1441;48.886;8.728;2023-05-17T11:20:08;14.90;70.30
2867;DHT22;1441;48.886;8.728;2023-05-17T11:25:06;15.00;73.50
2867;DHT22;1441;48.886;8.728;2023-05-17T11:27:47;15.20;70.80
2867;DHT22;1441;48.886;8.728;2023-05-17T11:32:52;15.40;71.30
2867;DHT22;1441;48.886;8.728;2023-05-17T11:35:18;15.60;68.60
2867;DHT22;1441;48.886;8.728;2023-05-17T11:37:51;15.60;68.30
2867;DHT22;1441;48.886;8.728;2023-05-17T11:40:24;15.60;68.20
2867;DHT22;1441;48.886;8.728;2023-05-17T11:43:21;15.70;67.70
2867;DHT22;1441;48.886;8.728;2023-05-17T11:48:19;15.50;67.70
2867;DHT22;1441;48.886;8.728;2023-05-17T11:50:46;15.50;68.30
2867;DHT22;1441;48.886;8.728;2023-05-17T11:53:13;15.60;67.00
2867;DHT22;1441;48.886;8.728;2023-05-17T11:55:43;15.60;65.50
2867;DHT22;1441;48.886;8.728;2023-05-17T11:58:11;15.50;67.30
2867;DHT22;1441;48.886;8.728;2023-05-17T12:00:37;15.60;68.70
2867;DHT22;1441;48.886;8.728;2023-05-17T12:03:27;15.70;67.30
2867;DHT22;1441;48.886;8.728;2023-05-17T12:08:33;15.60;68.00
2867;DHT22;1441;48.886;8.728;2023-05-17T12:10:59;15.50;67.60
2867;DHT22;1441;48.886;8.728;2023-05-17T12:13:30;15.40;68.30
2867;DHT22;1441;48.886;8.728;2023-05-17T12:16:02;15.40;69.00
2867;DHT22;1441;48.886;8.728;2023-05-17T12:18:37;15.10;70.40
2867;DHT22;1441;48.886;8.728;2023-05-17T12:21:03;15.10;71.30
2867;DHT22;1441;48.886;8.728;2023-05-17T12:23:30;15.00;69.50
2867;DHT22;1441;48.886;8.728;2023-05-17T12:26:09;15.10;70.50
2867;DHT22;1441;48.886;8.728;2023-05-17T12:28:38;15.00;70.20
2867;DHT22;1441;48.886;8.728;2023-05-17T12:31:10;14.90;73.20
2867;DHT22;1441;48.886;8.728;2023-05-17T12:33:38;14.90;74.60
2867;DHT22;1441;48.886;8.728;2023-05-17T12:36:06;15.20;72.10
2867;DHT22;1441;48.886;8.728;2023-05-17T12:38:33;15.50;69.40
2867;DHT22;1441;48.886;8.728;2023-05-17T12:41:01;15.40;70.80
2867;DHT22;1441;48.886;8.728;2023-05-17T12:43:28;15.30;70.40
2867;DHT22;1441;48.886;8.728;2023-05-17T12:46:07;15.30;70.20
2867;DHT22;1441;48.886;8.728;2023-05-17T12:48:38;15.10;70.00
2867;DHT22;1441;48.886;8.728;2023-05-17T12:51:15;15.10;69.90
2867;DHT22;1441;48.886;8.728;2023-05-17T12:56:15;15.10;69.20
2867;DHT22;1441;48.886;8.728;2023-05-17T12:58:40;15.20;70.10
2867;DHT22;1441;48.886;8.728;2023-05-17T13:01:06;15.20;68.90
2867;DHT22;1441;48.886;8.728;2023-05-17T13:03:35;15.30;68.80
2867;DHT22;1441;48.886;8.728;2023-05-17T13:06:05;15.40;69.90
2867;DHT22;1441;48.886;8.728;2023-05-17T13:08:32;15.50;68.10
2867;DHT22;1441;48.886;8.728;2023-05-17T13:11:09;15.70;69.60
2867;DHT22;1441;48.886;8.728;2023-05-17T13:13:35;15.90;67.50
2867;DHT22;1441;48.886;8.728;2023-05-17T13:16:00;16.00;70.10
2867;DHT22;1441;48.886;8.728;2023-05-17T13:18:26;16.00;68.70
2867;DHT22;1441;48.886;8.728;2023-05-17T13:20:53;15.80;69.70
2867;DHT22;1441;48.886;8.728;2023-05-17T13:23:18;15.70;68.70
2867;DHT22;1441;48.886;8.728;2023-05-17T13:25:44;15.60;69.80
2867;DHT22;1441;48.886;8.728;2023-05-17T13:28:10;15.70;68.70
2867;DHT22;1441;48.886;8.728;2023-05-17T13:30:35;15.70;69.70
2867;DHT22;1441;48.886;8.728;2023-05-17T13:33:01;15.70;67.20
2867;DHT22;1441;48.886;8.728;2023-05-17T13:35:26;15.70;69.00
2867;DHT22;1441;48.886;8.728;2023-05-17T13:37:52;15.90;67.80
2867;DHT22;1441;48.886;8.728;2023-05-17T13:40:17;16.00;69.80
2867;DHT22;1441;48.886;8.728;2023-05-17T13:42:43;16.10;68.90
2867;DHT22;1441;48.886;8.728;2023-05-17T13:45:09;16.20;68.30
2867;DHT22;1441;48.886;8.728;2023-05-17T13:47:36;16.60;67.30
2867;DHT22;1441;48.886;8.728;2023-05-17T13:50:01;16.30;65.90
2867;DHT22;1441;48.886;8.728;2023-05-17T13:52:28;16.10;67.50
2867;DHT22;1441;48.886;8.728;2023-05-17T13:54:54;16.20;66.30
2867;DHT22;1441;48.886;8.728;2023-05-17T13:57:20;16.50;64.60
2867;DHT22;1441;48.886;8.728;2023-05-17T13:59:46;16.50;65.10
2867;DHT22;1441;48.886;8.728;2023-05-17T14:02:11;16.50;65.20
2867;DHT22;1441;48.886;8.728;2023-05-17T14:04:37;16.40;65.50
2867;DHT22;1441;48.886;8.728;2023-05-17T14:07:03;16.20;66.00
2867;DHT22;1441;48.886;8.728;2023-05-17T14:09:29;16.00;65.20
2867;DHT22;1441;48.886;8.728;2023-05-17T14:11:59;16.10;65.50
2867;DHT22;1441;48.886;8.728;2023-05-17T14:14:26;16.00;65.70
2867;DHT22;1441;48.886;8.728;2023-05-17T14:16:55;15.90;65.40
2867;DHT22;1441;48.886;8.728;2023-05-17T14:19:21;15.80;66.10
2867;DHT22;1441;48.886;8.728;2023-05-17T14:21:46;15.60;67.10
2867;DHT22;1441;48.886;8.728;2023-05-17T14:24:12;15.50;69.50
2867;DHT22;1441;48.886;8.728;2023-05-17T14:26:38;15.50;68.40
2867;DHT22;1441;48.886;8.728;2023-05-17T14:29:03;15.60;68.70
2867;DHT22;1441;48.886;8.728;2023-05-17T14:31:32;15.50;67.90
2867;DHT22;1441;48.886;8.728;2023-05-17T14:33:58;15.40;68.60
2867;DHT22;1441;48.886;8.728;2023-05-17T14:36:26;15.40;68.90
2867;DHT22;1441;48.886;8.728;2023-05-17T14:38:51;15.50;68.80
2867;DHT22;1441;48.886;8.728;2023-05-17T14:41:17;15.60;67.20
2867;DHT22;1441;48.886;8.728;2023-05-17T14:43:43;15.40;68.30
2867;DHT22;1441;48.886;8.728;2023-05-17T14:46:08;15.40;68.10
2867;DHT22;1441;48.886;8.728;2023-05-17T14:48:34;15.60;67.60
2867;DHT22;1441;48.886;8.728;2023-05-17T14:51:00;15.60;67.40
2867;DHT22;1441;48.886;8.728;2023-05-17T14:53:27;15.60;67.30
2867;DHT22;1441;48.886;8.728;2023-05-17T14:55:54;15.70;65.80
2867;DHT22;1441;48.886;8.728;2023-05-17T14:58:19;15.70;63.60
2867;DHT22;1441;48.886;8.728;2023-05-17T15:00:46;15.80;64.60
2867;DHT22;1441;48.886;8.728;2023-05-17T15:03:12;16.00;64.10
2867;DHT22;1441;48.886;8.728;2023-05-17T15:05:38;15.90;67.60
2867;DHT22;1441;48.886;8.728;2023-05-17T15:08:04;15.90;64.70
2867;DHT22;1441;48.886;8.728;2023-05-17T15:10:30;15.70;63.10
2867;DHT22;1441;48.886;8.728;2023-05-17T15:12:56;15.70;64.30
2867;DHT22;1441;48.886;8.728;2023-05-17T15:15:21;15.90;64.10
2867;DHT22;1441;48.886;8.728;2023-05-17T15:17:47;16.20;64.70
2867;DHT22;1441;48.886;8.728;2023-05-17T15:20:12;16.50;64.00
2867;DHT22;1441;48.886;8.728;2023-05-17T15:22:38;16.70;63.20
2867;DHT22;1441;48.886;8.728;2023-05-17T15:25:05;16.90;62.80
2867;DHT22;1441;48.886;8.728;2023-05-17T15:27:30;16.90;61.70
2867;DHT22;1441;48.886;8.728;2023-05-17T15:29:56;16.90;61.70
2867;DHT22;1441;48.886;8.728;2023-05-17T15:32:21;17.00;62.80
2867;DHT22;1441;48.886;8.728;2023-05-17T15:34:47;17.00;61.10
2867;DHT22;1441;48.886;8.728;2023-05-17T15:37:12;16.90;61.10
2867;DHT22;1441;48.886;8.728;2023-05-17T15:39:38;16.70;63.30
2867;DHT22;1441;48.886;8.728;2023-05-17T15:42:04;16.60;63.20
2867;DHT22;1441;48.886;8.728;2023-05-17T15:44:30;16.50;61.50
2867;DHT22;1441;48.886;8.728;2023-05-17T15:46:55;16.20;63.10
2867;DHT22;1441;48.886;8.728;2023-05-17T15:49:21;15.90;63.90
2867;DHT22;1441;48.886;8.728;2023-05-17T15:51:46;15.60;64.20
2867;DHT22;1441;48.886;8.728;2023-05-17T15:54:13;15.40;65.10
2867;DHT22;1441;48.886;8.728;2023-05-17T15:56:39;15.40;66.20
2867;DHT22;1441;48.886;8.728;2023-05-17T15:59:04;15.50;66.20
2867;DHT22;1441;48.886;8.728;2023-05-17T16:01:32;15.50;66.30
2867;DHT22;1441;48.886;8.728;2023-05-17T16:03:57;15.40;64.50
2867;DHT22;1441;48.886;8.728;2023-05-17T16:06:23;15.30;64.00
2867;DHT22;1441;48.886;8.728;2023-05-17T16:08:48;15.20;63.90
2867;DHT22;1441;48.886;8.728;2023-05-17T16:11:14;15.10;64.10
2867;DHT22;1441;48.886;8.728;2023-05-17T16:13:39;15.20;64.30
2867;DHT22;1441;48.886;8.728;2023-05-17T16:16:05;15.20;64.80
2867;DHT22;1441;48.886;8.728;2023-05-17T16:18:31;15.10;66.00
2867;DHT22;1441;48.886;8.728;2023-05-17T16:21:02;15.00;67.40
2867;DHT22;1441;48.886;8.728;2023-05-17T16:23:28;14.80;66.80
2867;DHT22;1441;48.886;8.728;2023-05-17T16:25:54;14.90;66.50
2867;DHT22;1441;48.886;8.728;2023-05-17T16:28:21;14.90;66.60
2867;DHT22;1441;48.886;8.728;2023-05-17T16:30:48;14.90;65.70
2867;DHT22;1441;48.886;8.728;2023-05-17T16:33:14;14.90;65.70
2867;DHT22;1441;48.886;8.728;2023-05-17T16:35:40;15.00;65.60
2867;DHT22;1441;48.886;8.728;2023-05-17T16:38:06;15.20;65.20